createdAt,value
2022-09-28T00:00:22.805Z,46.89
2022-09-28T00:01:22.848Z,48.34
2022-09-28T00:02:22.867Z,47.37
2022-09-28T00:03:22.774Z,48.50
2022-09-28T00:04:22.768Z,49.31
2022-09-28T00:05:22.755Z,50.43
2022-09-28T00:06:22.759Z,51.72
2022-09-28T00:07:22.746Z,47.86
2022-09-28T00:08:22.745Z,47.53
2022-09-28T00:09:22.737Z,48.34
2022-09-28T00:10:22.725Z,48.34
2022-09-28T00:11:22.747Z,47.37
2022-09-28T00:12:22.717Z,49.15
2022-09-28T00:13:22.704Z,47.21
2022-09-28T00:14:22.708Z,46.73
2022-09-28T00:15:22.699Z,50.60
2022-09-28T00:16:22.753Z,45.76
2022-09-28T00:17:22.672Z,48.34
2022-09-28T00:18:22.676Z,49.79
2022-09-28T00:19:22.664Z,48.18
2022-09-28T00:20:22.665Z,48.50
2022-09-28T00:21:22.648Z,45.28
2022-09-28T00:22:22.651Z,45.92
2022-09-28T00:23:22.633Z,46.25
2022-09-28T00:24:27.274Z,46.25
2022-09-28T00:25:24.647Z,50.11
2022-09-28T00:26:22.615Z,50.11
2022-09-28T00:27:22.607Z,49.31
2022-09-28T00:28:22.600Z,48.34
2022-09-28T00:29:23.609Z,48.98
2022-09-28T00:30:22.618Z,47.86
2022-09-28T00:31:22.602Z,48.18
2022-09-28T00:32:22.583Z,47.53
2022-09-28T00:33:22.566Z,46.41
2022-09-28T00:34:22.567Z,46.89
2022-09-28T00:35:22.629Z,47.05
2022-09-28T00:36:22.550Z,51.08
2022-09-28T00:37:22.539Z,49.31
2022-09-28T00:38:22.534Z,47.05
2022-09-28T00:39:22.530Z,45.92
2022-09-28T00:40:22.538Z,46.89
2022-09-28T00:41:22.531Z,48.18
2022-09-28T00:42:22.514Z,47.37
2022-09-28T00:43:22.498Z,48.18
2022-09-28T00:44:22.496Z,48.02
2022-09-28T00:45:22.487Z,48.18
2022-09-28T00:46:22.499Z,48.34
2022-09-28T00:47:22.472Z,46.89
2022-09-28T00:48:22.473Z,46.25
2022-09-28T00:49:22.455Z,47.05
2022-09-28T00:50:22.442Z,48.66
2022-09-28T00:51:22.466Z,48.18
2022-09-28T00:52:22.431Z,45.92
2022-09-28T00:53:22.429Z,46.41
2022-09-28T00:54:22.419Z,53.01
2022-09-28T00:55:22.419Z,51.72
2022-09-28T00:56:22.459Z,47.21
2022-09-28T00:57:22.415Z,48.66
2022-09-28T00:58:22.391Z,48.82
2022-09-28T00:59:22.387Z,48.34
2022-09-28T01:00:22.378Z,46.57
2022-09-28T01:01:22.412Z,50.11
2022-09-28T01:02:22.415Z,46.73
2022-09-28T01:03:22.356Z,47.53
2022-09-28T01:04:23.547Z,47.86
2022-09-28T01:05:22.346Z,48.66
2022-09-28T01:06:22.337Z,48.34
2022-09-28T01:07:22.346Z,49.47
2022-09-28T01:08:22.325Z,49.63
2022-09-28T01:09:22.314Z,47.53
2022-09-28T01:10:22.304Z,46.25
2022-09-28T01:11:22.307Z,46.08
2022-09-28T01:12:22.298Z,49.63
2022-09-28T01:13:22.295Z,47.21
2022-09-28T01:14:22.294Z,49.79
2022-09-28T01:15:22.279Z,45.44
2022-09-28T01:16:22.334Z,45.76
2022-09-28T01:17:22.279Z,46.73
2022-09-28T01:18:22.266Z,46.89
2022-09-28T01:19:22.250Z,47.86
2022-09-28T01:20:22.245Z,46.73
2022-09-28T01:21:22.234Z,46.89
2022-09-28T01:22:22.223Z,46.57
2022-09-28T01:23:22.231Z,48.02
2022-09-28T01:24:22.217Z,50.11
2022-09-28T01:25:22.202Z,47.70
2022-09-28T01:26:22.202Z,47.05
2022-09-28T01:27:22.193Z,46.89
2022-09-28T01:28:22.207Z,50.76
2022-09-28T01:29:22.188Z,50.92
2022-09-28T01:30:22.174Z,53.17
2022-09-28T01:31:22.173Z,47.37
2022-09-28T01:32:22.155Z,48.18
2022-09-28T01:33:22.170Z,48.82
2022-09-28T01:34:22.144Z,50.60
2022-09-28T01:35:22.135Z,48.50
2022-09-28T01:36:22.131Z,49.15
2022-09-28T01:37:22.124Z,48.66
2022-09-28T01:38:22.116Z,48.02
2022-09-28T01:39:22.127Z,49.15
2022-09-28T01:40:22.154Z,45.60
2022-09-28T01:41:22.102Z,46.41
2022-09-28T01:42:22.094Z,46.73
2022-09-28T01:43:22.082Z,51.56
2022-09-28T01:44:22.095Z,47.21
2022-09-28T01:45:22.070Z,47.21
2022-09-28T01:46:22.057Z,46.41
2022-09-28T01:47:22.046Z,47.37
2022-09-28T01:48:22.046Z,51.08
2022-09-28T01:49:22.055Z,47.37
2022-09-28T01:50:22.022Z,46.25
2022-09-28T01:51:22.027Z,45.76
2022-09-28T01:52:22.018Z,47.53
2022-09-28T01:53:22.014Z,51.72
2022-09-28T01:54:22.004Z,47.37
2022-09-28T01:55:22.007Z,46.41
2022-09-28T01:56:21.986Z,45.92
2022-09-28T01:57:21.997Z,45.92
2022-09-28T01:58:21.975Z,47.53
2022-09-28T01:59:21.962Z,46.73
2022-09-28T02:00:21.974Z,48.02
2022-09-28T02:01:22.010Z,46.25
2022-09-28T02:02:21.989Z,49.95
2022-09-28T02:03:21.934Z,46.73
2022-09-28T02:04:21.934Z,50.11
2022-09-28T02:05:21.946Z,48.34
2022-09-28T02:06:21.922Z,45.44
2022-09-28T02:07:21.914Z,46.57
2022-09-28T02:08:21.899Z,54.46
2022-09-28T02:09:21.894Z,46.73
2022-09-28T02:10:21.906Z,48.50
2022-09-28T02:11:21.889Z,47.86
2022-09-28T02:12:21.886Z,48.66
2022-09-28T02:13:21.870Z,48.18
2022-09-28T02:14:21.870Z,51.88
2022-09-28T02:15:21.858Z,50.11
2022-09-28T02:16:21.898Z,51.72
2022-09-28T02:17:21.860Z,51.56
2022-09-28T02:18:21.843Z,51.40
2022-09-28T02:19:21.854Z,53.82
2022-09-28T02:20:21.819Z,51.88
2022-09-28T02:21:21.814Z,50.11
2022-09-28T02:22:21.819Z,50.27
2022-09-28T02:23:21.798Z,53.82
2022-09-28T02:24:21.837Z,53.66
2022-09-28T02:25:21.778Z,51.72
2022-09-28T02:26:21.781Z,56.24
2022-09-28T02:27:21.783Z,52.69
2022-09-28T02:28:21.767Z,52.85
2022-09-28T02:29:21.787Z,52.37
2022-09-28T02:30:21.742Z,55.27
2022-09-28T02:31:21.775Z,56.72
2022-09-28T02:32:21.759Z,54.62
2022-09-28T02:33:21.741Z,53.98
2022-09-28T02:34:21.718Z,56.24
2022-09-28T02:35:21.718Z,56.07
2022-09-28T02:36:21.702Z,48.82
2022-09-28T02:37:21.722Z,48.98
2022-09-28T02:38:21.698Z,52.37
2022-09-28T02:39:21.690Z,50.76
2022-09-28T02:40:21.753Z,50.60
2022-09-28T02:41:21.679Z,53.66
2022-09-28T02:42:21.678Z,52.37
2022-09-28T02:43:21.675Z,53.82
2022-09-28T02:44:21.659Z,53.66
2022-09-28T02:45:21.642Z,52.53
2022-09-28T02:46:21.646Z,51.08
2022-09-28T02:47:21.634Z,53.82
2022-09-28T02:48:41.167Z,54.14
2022-09-28T02:49:23.763Z,56.56
2022-09-28T02:50:21.614Z,56.40
2022-09-28T02:51:21.611Z,53.17
2022-09-28T02:52:21.594Z,53.33
2022-09-28T02:53:21.610Z,54.30
2022-09-28T02:54:21.590Z,51.24
2022-09-28T02:55:21.573Z,53.17
2022-09-28T02:56:21.574Z,54.46
2022-09-28T02:57:21.571Z,52.85
2022-09-28T02:58:21.583Z,53.50
2022-09-28T02:59:21.554Z,52.69
2022-09-28T03:00:21.546Z,53.82
2022-09-28T03:01:21.612Z,54.46
2022-09-28T03:02:21.556Z,56.56
2022-09-28T03:03:21.533Z,52.53
2022-09-28T03:04:22.533Z,52.85
2022-09-28T03:05:21.493Z,53.17
2022-09-28T03:06:22.510Z,50.92
2022-09-28T03:07:21.502Z,54.79
2022-09-28T03:08:21.511Z,55.43
2022-09-28T03:09:21.489Z,55.11
2022-09-28T03:10:21.474Z,52.85
2022-09-28T03:11:21.475Z,52.85
2022-09-28T03:12:21.478Z,55.43
2022-09-28T03:13:21.473Z,56.40
2022-09-28T03:14:21.445Z,54.62
2022-09-28T03:15:21.450Z,56.40
2022-09-28T03:16:21.496Z,56.88
2022-09-28T03:17:21.431Z,54.14
2022-09-28T03:18:21.426Z,55.11
2022-09-28T03:19:21.433Z,57.04
2022-09-28T03:20:21.408Z,56.24
2022-09-28T03:21:21.397Z,55.75
2022-09-28T03:22:21.397Z,53.82
2022-09-28T03:23:25.455Z,55.11
2022-09-28T03:24:22.394Z,55.59
2022-09-28T03:25:21.375Z,58.33
2022-09-28T03:26:21.370Z,56.07
2022-09-28T03:27:21.354Z,58.17
2022-09-28T03:28:21.356Z,55.27
2022-09-28T03:29:21.358Z,57.52
2022-09-28T03:30:21.334Z,58.01
2022-09-28T03:31:21.369Z,56.24
2022-09-28T03:32:21.329Z,57.20
2022-09-28T03:33:21.321Z,57.85
2022-09-28T03:34:21.325Z,57.20
2022-09-28T03:35:21.306Z,58.01
2022-09-28T03:36:21.302Z,57.04
2022-09-28T03:37:21.286Z,57.20
2022-09-28T03:38:21.314Z,58.33
2022-09-28T03:39:21.282Z,58.17
2022-09-28T03:40:21.301Z,57.52
2022-09-28T03:41:21.265Z,57.04
2022-09-28T03:42:21.253Z,56.88
2022-09-28T03:43:21.254Z,58.65
2022-09-28T03:44:21.234Z,56.24
2022-09-28T03:45:21.234Z,56.88
2022-09-28T03:46:21.328Z,59.94
2022-09-28T03:47:21.218Z,60.26
2022-09-28T03:48:25.041Z,58.01
2022-09-28T03:49:23.201Z,58.33
2022-09-28T03:50:21.195Z,58.01
2022-09-28T03:51:21.205Z,57.36
2022-09-28T03:52:21.193Z,58.01
2022-09-28T03:53:21.175Z,58.17
2022-09-28T03:54:21.173Z,57.20
2022-09-28T03:55:21.178Z,58.81
2022-09-28T03:56:21.165Z,58.49
2022-09-28T03:57:21.158Z,57.20
2022-09-28T03:58:21.136Z,58.49
2022-09-28T03:59:21.141Z,57.36
2022-09-28T04:00:21.133Z,57.52
2022-09-28T04:01:21.170Z,57.04
2022-09-28T04:02:21.164Z,58.49
2022-09-28T04:03:21.102Z,56.88
2022-09-28T04:04:21.094Z,57.52
2022-09-28T04:05:21.093Z,56.40
2022-09-28T04:06:21.117Z,56.88
2022-09-28T04:07:21.071Z,56.56
2022-09-28T04:08:22.057Z,56.24
2022-09-28T04:09:21.053Z,57.52
2022-09-28T04:10:21.049Z,59.14
2022-09-28T04:11:21.053Z,57.36
2022-09-28T04:12:21.041Z,56.88
2022-09-28T04:13:21.035Z,58.97
2022-09-28T04:14:21.021Z,55.59
2022-09-28T04:15:21.018Z,57.04
2022-09-28T04:16:21.072Z,57.20
2022-09-28T04:17:21.001Z,55.59
2022-09-28T04:18:21.002Z,57.69
2022-09-28T04:19:21.032Z,58.49
2022-09-28T04:20:21.006Z,57.85
2022-09-28T04:21:21.100Z,59.46
2022-09-28T04:22:20.964Z,58.81
2022-09-28T04:23:20.957Z,57.20
2022-09-28T04:24:20.949Z,58.01
2022-09-28T04:25:20.953Z,59.78
2022-09-28T04:26:20.945Z,58.65
2022-09-28T04:27:20.937Z,58.65
2022-09-28T04:28:20.929Z,58.01
2022-09-28T04:29:21.126Z,58.33
2022-09-28T04:30:20.911Z,59.62
2022-09-28T04:31:20.918Z,56.56
2022-09-28T04:32:20.918Z,60.10
2022-09-28T04:33:20.893Z,61.07
2022-09-28T04:34:20.875Z,61.07
2022-09-28T04:35:20.886Z,61.07
2022-09-28T04:36:20.861Z,60.10
2022-09-28T04:37:20.865Z,59.94
2022-09-28T04:38:35.901Z,61.39
2022-09-28T04:39:22.849Z,61.39
2022-09-28T04:40:20.856Z,61.55
2022-09-28T04:41:20.845Z,60.10
2022-09-28T04:42:20.865Z,60.91
2022-09-28T04:43:20.814Z,62.52
2022-09-28T04:44:20.813Z,61.23
2022-09-28T04:45:20.821Z,62.20
2022-09-28T04:46:20.821Z,61.87
2022-09-28T04:47:20.813Z,63.16
2022-09-28T04:48:20.781Z,62.20
2022-09-28T04:49:20.785Z,59.62
2022-09-28T04:50:20.770Z,62.04
2022-09-28T04:51:20.761Z,61.07
2022-09-28T04:52:20.753Z,58.97
2022-09-28T04:53:20.793Z,60.26
2022-09-28T04:54:20.741Z,60.75
2022-09-28T04:55:20.734Z,60.42
2022-09-28T04:56:20.725Z,60.59
2022-09-28T04:57:20.718Z,58.01
2022-09-28T04:58:20.721Z,58.65
2022-09-28T04:59:20.693Z,60.10
2022-09-28T05:00:20.705Z,59.30
2022-09-28T05:01:20.764Z,58.65
2022-09-28T05:02:20.705Z,57.85
2022-09-28T05:03:20.677Z,60.42
2022-09-28T05:04:25.639Z,60.75
2022-09-28T05:05:22.657Z,61.07
2022-09-28T05:06:20.649Z,61.87
2022-09-28T05:07:20.651Z,59.94
2022-09-28T05:08:20.644Z,59.46
2022-09-28T05:09:20.658Z,57.52
2022-09-28T05:10:20.625Z,58.33
2022-09-28T05:11:20.629Z,58.01
2022-09-28T05:12:20.612Z,59.30
2022-09-28T05:13:20.604Z,59.62
2022-09-28T05:14:20.593Z,60.42
2022-09-28T05:15:20.613Z,58.97
2022-09-28T05:16:20.683Z,58.97
2022-09-28T05:17:20.589Z,59.62
2022-09-28T05:18:20.582Z,59.94
2022-09-28T05:19:20.567Z,60.75
2022-09-28T05:20:20.578Z,60.10
2022-09-28T05:21:20.549Z,60.59
2022-09-28T05:22:20.541Z,60.59
2022-09-28T05:23:20.542Z,59.94
2022-09-28T05:24:20.545Z,59.94
2022-09-28T05:25:20.534Z,61.07
2022-09-28T05:26:20.524Z,58.97
2022-09-28T05:27:20.551Z,59.94
2022-09-28T05:28:20.493Z,59.94
2022-09-28T05:29:20.500Z,58.01
2022-09-28T05:30:20.505Z,58.81
2022-09-28T05:31:20.519Z,59.62
2022-09-28T05:32:20.474Z,57.85
2022-09-28T05:33:20.470Z,61.07
2022-09-28T05:34:20.448Z,58.81
2022-09-28T05:35:20.480Z,59.14
2022-09-28T05:36:20.460Z,59.78
2022-09-28T05:37:20.452Z,59.78
2022-09-28T05:38:20.436Z,60.59
2022-09-28T05:39:20.436Z,58.49
2022-09-28T05:40:20.490Z,60.91
2022-09-28T05:41:20.416Z,60.10
2022-09-28T05:42:20.408Z,59.46
2022-09-28T05:43:20.409Z,60.59
2022-09-28T05:44:20.423Z,60.10
2022-09-28T05:45:20.401Z,60.10
2022-09-28T05:46:20.475Z,60.10
2022-09-28T05:47:20.400Z,59.46
2022-09-28T05:48:20.364Z,58.33
2022-09-28T05:49:20.360Z,59.14
2022-09-28T05:50:20.354Z,61.55
2022-09-28T05:51:20.344Z,59.46
2022-09-28T05:52:20.360Z,57.36
2022-09-28T05:53:20.331Z,58.65
2022-09-28T05:54:20.488Z,59.30
2022-09-28T05:55:20.318Z,58.01
2022-09-28T05:56:20.304Z,59.62
2022-09-28T05:57:20.301Z,58.01
2022-09-28T05:58:20.316Z,58.97
2022-09-28T05:59:20.282Z,55.91
2022-09-28T06:00:20.288Z,56.40
2022-09-28T06:01:20.320Z,56.40
2022-09-28T06:02:20.328Z,55.91
2022-09-28T06:03:20.276Z,56.72
2022-09-28T06:04:20.260Z,56.88
2022-09-28T06:05:20.244Z,56.40
2022-09-28T06:06:20.240Z,56.72
2022-09-28T06:07:20.241Z,57.04
2022-09-28T06:08:20.217Z,54.62
2022-09-28T06:09:25.142Z,58.01
2022-09-28T06:10:21.212Z,57.36
2022-09-28T06:11:21.200Z,57.85
2022-09-28T06:12:20.197Z,56.88
2022-09-28T06:13:20.192Z,57.20
2022-09-28T06:14:20.196Z,56.72
2022-09-28T06:15:20.185Z,57.52
2022-09-28T06:16:20.224Z,57.52
2022-09-28T06:17:20.178Z,56.24
2022-09-28T06:18:20.185Z,56.88
2022-09-28T06:19:20.152Z,57.04
2022-09-28T06:20:20.156Z,54.30
2022-09-28T06:21:20.133Z,56.56
2022-09-28T06:22:20.130Z,55.43
2022-09-28T06:23:20.124Z,54.30
2022-09-28T06:24:20.116Z,56.07
2022-09-28T06:25:20.124Z,56.24
2022-09-28T06:26:20.088Z,56.72
2022-09-28T06:27:20.100Z,57.36
2022-09-28T06:28:20.084Z,55.75
2022-09-28T06:29:20.091Z,58.01
2022-09-28T06:30:20.093Z,56.56
2022-09-28T06:31:20.126Z,55.27
2022-09-28T06:32:20.047Z,57.85
2022-09-28T06:33:20.052Z,57.20
2022-09-28T06:34:20.056Z,58.01
2022-09-28T06:35:20.049Z,57.85
2022-09-28T06:36:20.036Z,57.52
2022-09-28T06:37:20.038Z,57.85
2022-09-28T06:38:20.020Z,57.52
2022-09-28T06:39:20.012Z,56.24
2022-09-28T06:40:20.077Z,57.36
2022-09-28T06:41:19.988Z,58.49
2022-09-28T06:42:20.000Z,56.72
2022-09-28T06:43:19.992Z,56.88
2022-09-28T06:44:19.992Z,57.20
2022-09-28T06:45:20.007Z,56.72
2022-09-28T06:46:20.071Z,57.52
2022-09-28T06:47:19.956Z,57.52
2022-09-28T06:48:19.965Z,56.88
2022-09-28T06:49:19.956Z,55.43
2022-09-28T06:50:19.939Z,56.24
2022-09-28T06:51:19.928Z,55.91
2022-09-28T06:52:19.937Z,54.46
2022-09-28T06:53:19.911Z,56.07
2022-09-28T06:54:19.911Z,56.72
2022-09-28T06:55:19.909Z,56.40
2022-09-28T06:56:19.919Z,55.11
2022-09-28T06:57:19.897Z,56.40
2022-09-28T06:58:19.889Z,57.52
2022-09-28T06:59:19.892Z,57.52
2022-09-28T07:00:19.870Z,57.52
2022-09-28T07:01:19.953Z,57.36
2022-09-28T07:02:19.887Z,56.24
2022-09-28T07:03:19.853Z,55.27
2022-09-28T07:04:19.848Z,58.01
2022-09-28T07:05:19.847Z,58.49
2022-09-28T07:06:19.839Z,57.52
2022-09-28T07:07:19.837Z,56.40
2022-09-28T07:08:19.828Z,56.72
2022-09-28T07:09:31.489Z,56.07
2022-09-28T07:10:21.809Z,55.43
2022-09-28T07:11:19.816Z,53.98
2022-09-28T07:12:19.792Z,54.46
2022-09-28T07:13:46.331Z,57.20
2022-09-28T07:14:42.914Z,56.72
2022-09-28T07:15:21.771Z,55.11
2022-09-28T07:16:25.659Z,55.75
2022-09-28T07:17:20.826Z,58.65
2022-09-28T07:18:19.821Z,57.04
2022-09-28T07:19:19.744Z,57.20
2022-09-28T07:20:20.034Z,55.59
2022-09-28T07:21:29.201Z,55.91
2022-09-28T07:22:31.972Z,53.98
2022-09-28T07:23:21.721Z,55.75
2022-09-28T07:24:20.235Z,54.30
2022-09-28T07:25:19.700Z,55.27
2022-09-28T07:26:23.185Z,54.79
2022-09-28T07:27:22.553Z,54.30
2022-09-28T07:28:19.712Z,54.95
2022-09-28T07:29:19.685Z,55.27
2022-09-28T07:30:19.676Z,54.62
2022-09-28T07:31:19.709Z,51.88
2022-09-28T07:32:19.666Z,55.27
2022-09-28T07:33:19.659Z,55.11
2022-09-28T07:34:19.647Z,54.14
2022-09-28T07:35:20.667Z,53.82
2022-09-28T07:36:19.636Z,55.75
2022-09-28T07:37:19.643Z,55.75
2022-09-28T07:38:19.636Z,54.62
2022-09-28T07:39:19.617Z,56.24
2022-09-28T07:40:19.697Z,53.66
2022-09-28T07:41:19.608Z,53.50
2022-09-28T07:42:19.593Z,52.21
2022-09-28T07:43:19.585Z,55.43
2022-09-28T07:44:19.584Z,54.62
2022-09-28T07:45:19.597Z,54.79
2022-09-28T07:46:19.620Z,53.98
2022-09-28T07:47:19.556Z,53.01
2022-09-28T07:48:19.556Z,53.98
2022-09-28T07:49:19.621Z,53.17
2022-09-28T07:50:19.563Z,55.27
2022-09-28T07:51:19.527Z,54.95
2022-09-28T07:52:19.516Z,54.46
2022-09-28T07:53:19.516Z,54.14
2022-09-28T07:54:19.505Z,54.62
2022-09-28T07:55:19.521Z,54.79
2022-09-28T07:56:19.496Z,53.50
2022-09-28T07:57:19.495Z,56.24
2022-09-28T07:58:19.486Z,53.66
2022-09-28T07:59:19.509Z,54.30
2022-09-28T08:00:19.472Z,53.33
2022-09-28T08:01:19.533Z,54.30
2022-09-28T08:02:19.507Z,54.30
2022-09-28T08:03:19.452Z,54.46
2022-09-28T08:04:19.441Z,54.79
2022-09-28T08:05:19.438Z,56.72
2022-09-28T08:06:19.428Z,57.04
2022-09-28T08:07:23.492Z,56.40
2022-09-28T08:08:20.446Z,53.17
2022-09-28T08:09:19.451Z,55.27
2022-09-28T08:10:19.405Z,54.62
2022-09-28T08:11:19.401Z,55.75
2022-09-28T08:12:19.384Z,55.59
2022-09-28T08:13:21.239Z,52.37
2022-09-28T08:14:19.384Z,54.79
2022-09-28T08:15:19.364Z,55.27
2022-09-28T08:16:19.493Z,54.79
2022-09-28T08:17:19.352Z,53.82
2022-09-28T08:18:19.344Z,54.79
2022-09-28T08:19:19.521Z,54.95
2022-09-28T08:20:19.328Z,55.59
2022-09-28T08:21:19.332Z,55.43
2022-09-28T08:22:19.337Z,55.11
2022-09-28T08:23:19.303Z,55.91
2022-09-28T08:24:19.490Z,56.40
2022-09-28T08:25:19.296Z,55.59
2022-09-28T08:26:19.288Z,54.95
2022-09-28T08:27:19.292Z,54.95
2022-09-28T08:28:19.280Z,54.95
2022-09-28T08:29:19.260Z,54.79
2022-09-28T08:30:19.256Z,54.14
2022-09-28T08:31:19.310Z,53.50
2022-09-28T08:32:19.232Z,52.53
2022-09-28T08:33:20.251Z,56.88
2022-09-28T08:34:19.375Z,57.52
2022-09-28T08:35:19.228Z,55.91
2022-09-28T08:36:19.229Z,55.91
2022-09-28T08:37:19.205Z,54.62
2022-09-28T08:38:19.203Z,55.27
2022-09-28T08:39:19.199Z,58.97
2022-09-28T08:40:19.240Z,59.46
2022-09-28T08:41:19.187Z,59.14
2022-09-28T08:42:19.178Z,57.52
2022-09-28T08:43:19.166Z,56.88
2022-09-28T08:44:19.152Z,57.52
2022-09-28T08:45:19.194Z,56.88
2022-09-28T08:46:22.699Z,56.88
2022-09-28T08:47:20.136Z,59.30
2022-09-28T08:48:19.128Z,56.56
2022-09-28T08:49:25.478Z,58.97
2022-09-28T08:50:21.137Z,57.52
2022-09-28T08:51:19.104Z,55.75
2022-09-28T08:52:19.123Z,57.85
2022-09-28T08:53:19.083Z,59.62
2022-09-28T08:54:19.126Z,58.17
2022-09-28T08:55:19.082Z,58.65
2022-09-28T08:56:19.077Z,57.20
2022-09-28T08:57:19.075Z,57.52
2022-09-28T08:58:19.058Z,56.88
2022-09-28T08:59:19.048Z,55.75
2022-09-28T09:00:19.035Z,53.33
2022-09-28T09:01:19.089Z,55.27
2022-09-28T09:02:19.075Z,54.79
2022-09-28T09:03:19.023Z,57.04
2022-09-28T09:04:19.152Z,59.14
2022-09-28T09:05:19.008Z,57.20
2022-09-28T09:06:18.999Z,55.75
2022-09-28T09:07:18.991Z,56.07
2022-09-28T09:08:18.993Z,56.24
2022-09-28T09:09:18.979Z,54.62
2022-09-28T09:10:18.967Z,55.59
2022-09-28T09:11:18.957Z,52.85
2022-09-28T09:12:18.960Z,55.75
2022-09-28T09:13:18.959Z,57.52
2022-09-28T09:14:18.974Z,57.20
2022-09-28T09:15:18.915Z,58.33
2022-09-28T09:16:19.003Z,57.20
2022-09-28T09:17:18.916Z,56.72
2022-09-28T09:18:20.000Z,58.01
2022-09-28T09:19:19.903Z,58.49
2022-09-28T09:20:18.880Z,56.40
2022-09-28T09:21:18.879Z,55.59
2022-09-28T09:22:18.887Z,56.40
2022-09-28T09:23:18.863Z,58.33
2022-09-28T09:24:19.021Z,53.33
2022-09-28T09:25:18.862Z,52.53
2022-09-28T09:26:23.755Z,54.79
2022-09-28T09:27:20.835Z,52.21
2022-09-28T09:28:18.827Z,53.82
2022-09-28T09:29:18.848Z,53.33
2022-09-28T09:30:20.405Z,52.69
2022-09-28T09:32:49.755Z,51.56
2022-09-28T09:33:49.741Z,53.01
2022-09-28T09:34:49.760Z,55.59
2022-09-28T09:35:49.731Z,56.24
2022-09-28T09:36:49.747Z,52.05
2022-09-28T09:37:49.810Z,53.66
2022-09-28T09:38:49.700Z,56.07
2022-09-28T09:39:49.716Z,55.91
2022-09-28T09:40:49.853Z,56.07
2022-09-28T09:41:49.711Z,58.33
2022-09-28T09:42:49.688Z,58.97
2022-09-28T09:43:49.683Z,56.56
2022-09-28T09:44:49.745Z,58.33
2022-09-28T09:45:49.737Z,60.10
2022-09-28T09:46:49.679Z,59.30
2022-09-28T09:47:49.642Z,55.27
2022-09-28T09:48:49.643Z,56.40
2022-09-28T09:49:49.652Z,58.33
2022-09-28T09:50:49.632Z,57.36
2022-09-28T09:51:49.616Z,58.49
2022-09-28T09:52:49.645Z,57.36
2022-09-28T09:53:49.607Z,57.85
2022-09-28T09:54:49.599Z,57.04
2022-09-28T09:55:49.604Z,56.40
2022-09-28T09:56:49.596Z,57.04
2022-09-28T09:57:49.600Z,57.69
2022-09-28T09:58:49.578Z,57.20
2022-09-28T09:59:49.571Z,57.04
2022-09-28T10:00:49.555Z,58.17
2022-09-28T10:01:49.618Z,58.17
2022-09-28T10:02:49.644Z,57.36
2022-09-28T10:03:49.539Z,60.10
2022-09-28T10:04:49.552Z,59.30
2022-09-28T10:05:49.526Z,55.75
2022-09-28T10:06:49.524Z,55.91
2022-09-28T10:23:08.332Z,56.88
2022-09-28T10:24:08.320Z,54.14
2022-09-28T10:25:08.310Z,52.37
2022-09-28T10:26:08.290Z,53.17
2022-09-28T10:27:08.299Z,54.79
2022-09-28T10:28:08.302Z,52.21
2022-09-28T10:29:08.283Z,53.50
2022-09-28T10:30:08.277Z,53.82
2022-09-28T10:32:08.260Z,53.98
2022-09-28T10:33:08.275Z,53.82
2022-09-28T10:34:08.252Z,51.40
2022-09-28T10:35:08.242Z,54.30
2022-09-28T10:36:08.244Z,54.62
2022-09-28T10:37:08.230Z,55.27
2022-09-28T10:38:08.233Z,54.79
2022-09-28T10:39:08.231Z,54.79
2022-09-28T10:40:08.211Z,56.24
2022-09-28T10:41:08.311Z,55.43
2022-09-28T10:42:08.198Z,57.36
2022-09-28T10:43:08.203Z,56.24
2022-09-28T10:44:08.195Z,55.59
2022-09-28T10:45:08.174Z,53.50
2022-09-28T10:46:08.278Z,56.40
2022-09-28T10:47:08.158Z,55.11
2022-09-28T10:48:08.154Z,56.56
2022-09-28T10:49:08.167Z,54.79
2022-09-28T10:50:08.143Z,54.14
2022-09-28T10:51:08.132Z,52.85
2022-09-28T10:52:08.126Z,53.17
2022-09-28T10:53:08.127Z,53.01
2022-09-28T10:54:08.111Z,53.98
2022-09-28T10:55:08.119Z,55.75
2022-09-28T10:56:08.106Z,55.11
2022-09-28T10:57:12.752Z,54.30
2022-09-28T10:58:09.095Z,53.98
2022-09-28T10:59:08.088Z,54.79
2022-09-28T11:00:08.079Z,51.88
2022-09-28T11:01:08.156Z,50.43
2022-09-28T11:02:08.132Z,52.37
2022-09-28T11:03:08.047Z,54.79
2022-09-28T11:04:08.067Z,53.82
2022-09-28T11:05:08.036Z,55.27
2022-09-28T11:06:08.034Z,54.30
2022-09-28T11:07:08.027Z,54.95
2022-09-28T11:08:08.030Z,56.40
2022-09-28T11:09:08.014Z,55.11
2022-09-28T11:10:08.019Z,55.91
2022-09-28T11:11:07.995Z,56.72
2022-09-28T11:12:07.990Z,55.75
2022-09-28T11:13:07.983Z,56.56
2022-09-28T11:14:07.971Z,55.43
2022-09-28T11:15:07.967Z,54.79
2022-09-28T11:16:07.959Z,56.24
2022-09-28T11:17:08.006Z,56.07
2022-09-28T11:18:07.974Z,56.40
2022-09-28T11:19:07.939Z,55.91
2022-09-28T11:20:07.946Z,55.59
2022-09-28T11:21:11.274Z,57.20
2022-09-28T11:22:11.534Z,56.07
2022-09-28T11:23:07.938Z,57.04
2022-09-28T11:24:07.908Z,58.49
2022-09-28T11:25:07.897Z,57.04
2022-09-28T11:26:07.898Z,55.91
2022-09-28T11:27:07.882Z,56.56
2022-09-28T11:28:07.886Z,55.11
2022-09-28T11:29:07.882Z,58.97
2022-09-28T11:30:08.878Z,56.88
2022-09-28T11:31:08.047Z,56.88
2022-09-28T11:32:09.605Z,56.56
2022-09-28T11:33:07.859Z,54.46
2022-09-28T11:34:07.842Z,54.79
2022-09-28T11:35:07.833Z,56.40
2022-09-28T11:36:07.823Z,56.72
2022-09-28T11:37:07.820Z,54.30
2022-09-28T11:38:07.818Z,56.24
2022-09-28T11:39:07.810Z,57.04
2022-09-28T11:40:07.798Z,57.69
2022-09-28T11:41:07.779Z,57.85
2022-09-28T11:42:07.791Z,59.62
2022-09-28T11:43:07.780Z,57.52
2022-09-28T11:44:07.787Z,57.85
2022-09-28T11:45:07.762Z,58.97
2022-09-28T11:46:07.798Z,58.33
2022-09-28T11:47:07.750Z,58.65
2022-09-28T11:48:07.750Z,58.01
2022-09-28T11:49:07.754Z,57.20
2022-09-28T11:50:07.730Z,58.65
2022-09-28T11:51:07.722Z,58.17
2022-09-28T11:52:07.711Z,56.56
2022-09-28T11:53:07.707Z,57.04
2022-09-28T11:54:07.726Z,57.20
2022-09-28T11:55:07.707Z,56.88
2022-09-28T11:56:09.021Z,56.24
2022-09-28T11:57:08.680Z,57.04
2022-09-28T11:58:07.678Z,55.27
2022-09-28T11:59:07.662Z,55.11
2022-09-28T12:00:07.674Z,55.27
2022-09-28T12:01:07.653Z,55.75
2022-09-28T12:02:07.696Z,54.95
2022-09-28T12:03:07.800Z,55.75
2022-09-28T12:04:07.634Z,54.62
2022-09-28T12:05:07.642Z,53.82
2022-09-28T12:06:07.852Z,56.40
2022-09-28T12:07:07.615Z,56.72
2022-09-28T12:08:07.599Z,56.56
2022-09-28T12:09:07.605Z,56.56
2022-09-28T12:10:07.595Z,57.52
2022-09-28T12:11:07.611Z,57.20
2022-09-28T12:12:07.585Z,55.75
2022-09-28T12:13:07.570Z,58.49
2022-09-28T12:14:07.571Z,56.56
2022-09-28T12:15:07.565Z,58.81
2022-09-28T12:16:27.681Z,57.04
2022-09-28T12:17:09.641Z,57.04
2022-09-28T12:18:07.587Z,58.97
2022-09-28T12:19:07.526Z,57.52
2022-09-28T12:20:07.523Z,56.24
2022-09-28T12:21:07.519Z,58.01
2022-09-28T12:22:07.517Z,57.36
2022-09-28T12:23:07.505Z,57.69
2022-09-28T12:24:07.490Z,58.97
2022-09-28T12:25:07.490Z,58.17
2022-09-28T12:26:07.482Z,58.33
2022-09-28T12:27:07.489Z,57.69
2022-09-28T12:28:07.472Z,59.46
2022-09-28T12:29:07.457Z,59.46
2022-09-28T12:30:07.520Z,57.52
2022-09-28T12:31:07.487Z,58.33
2022-09-28T12:32:07.457Z,54.30
2022-09-28T12:33:07.442Z,56.07
2022-09-28T12:34:07.426Z,56.40
2022-09-28T12:35:07.430Z,55.27
2022-09-28T12:36:07.418Z,55.27
2022-09-28T12:37:07.403Z,57.04
2022-09-28T12:38:07.402Z,54.95
2022-09-28T12:39:35.695Z,56.40
2022-09-28T12:40:09.386Z,57.85
2022-09-28T12:41:07.419Z,60.26
2022-09-28T12:42:07.373Z,57.52
2022-09-28T12:43:07.369Z,58.49
2022-09-28T12:44:07.367Z,56.72
2022-09-28T12:45:07.353Z,57.20
2022-09-28T12:46:11.972Z,56.72
2022-09-28T12:47:09.369Z,57.52
2022-09-28T12:48:07.349Z,57.69
2022-09-28T12:51:09.320Z,58.49
2022-09-28T12:52:07.302Z,57.04
2022-09-28T12:53:07.314Z,56.07
2022-09-28T12:54:07.294Z,55.43
2022-09-28T12:55:07.298Z,56.56
2022-09-28T12:56:07.273Z,58.97
2022-09-28T12:57:07.267Z,59.30
2022-09-28T12:58:07.262Z,57.69
2022-09-28T12:59:07.257Z,58.81
2022-09-28T13:00:07.253Z,58.33
2022-09-28T13:01:07.285Z,58.81
2022-09-28T13:02:07.269Z,59.46
2022-09-28T13:03:07.241Z,58.65
2022-09-28T13:04:11.427Z,58.01
2022-09-28T13:05:08.218Z,58.01
2022-09-28T13:06:07.238Z,57.69
2022-09-28T13:07:07.203Z,56.56
2022-09-28T13:08:07.198Z,56.56
2022-09-28T13:09:07.213Z,58.01
2022-09-28T13:10:07.203Z,58.01
2022-09-28T13:11:08.162Z,55.43
2022-09-28T13:12:08.174Z,59.46